sensor_id;sensor_type;location;lat;lon;timestamp;pressure;altitude;pressure_sealevel;temperature;humidity
50105;BME280;47690;39.202;-77.198;2022-07-01T00:01:49;100532.09;;;29.73;47.14
50105;BME280;47690;39.202;-77.198;2022-07-01T00:04:19;100534.34;;;29.68;47.00
50105;BME280;47690;39.202;-77.198;2022-07-01T00:07:09;100542.16;;;29.60;46.75
50105;BME280;47690;39.202;-77.198;2022-07-01T00:09:40;100545.38;;;29.53;48.02
50105;BME280;47690;39.202;-77.198;2022-07-01T00:12:12;100536.41;;;29.44;48.50
50105;BME280;47690;39.202;-77.198;2022-07-01T00:14:46;100542.28;;;29.38;49.53
50105;BME280;47690;39.202;-77.198;2022-07-01T00:17:17;100536.84;;;29.30;48.90
50105;BME280;47690;39.202;-77.198;2022-07-01T00:19:49;100537.38;;;29.24;49.15
50105;BME280;47690;39.202;-77.198;2022-07-01T00:22:29;100538.78;;;29.18;49.52
50105;BME280;47690;39.202;-77.198;2022-07-01T00:24:58;100535.25;;;29.08;50.25
50105;BME280;47690;39.202;-77.198;2022-07-01T00:27:28;100533.19;;;29.01;50.72
50105;BME280;47690;39.202;-77.198;2022-07-01T00:29:57;100543.59;;;28.93;50.38
50105;BME280;47690;39.202;-77.198;2022-07-01T00:32:27;100536.34;;;28.85;50.81
50105;BME280;47690;39.202;-77.198;2022-07-01T00:34:58;100538.94;;;28.75;51.35
50105;BME280;47690;39.202;-77.198;2022-07-01T00:37:28;100531.66;;;28.68;51.96
50105;BME280;47690;39.202;-77.198;2022-07-01T00:39:57;100529.81;;;28.58;51.63
50105;BME280;47690;39.202;-77.198;2022-07-01T00:42:27;100529.66;;;28.50;52.32
50105;BME280;47690;39.202;-77.198;2022-07-01T00:44:58;100531.16;;;28.43;52.28
50105;BME280;47690;39.202;-77.198;2022-07-01T00:47:29;100531.00;;;28.34;52.68
50105;BME280;47690;39.202;-77.198;2022-07-01T00:50:00;100524.53;;;28.27;53.04
50105;BME280;47690;39.202;-77.198;2022-07-01T00:52:31;100535.66;;;28.21;53.42
50105;BME280;47690;39.202;-77.198;2022-07-01T00:55:06;100539.88;;;28.12;53.95
50105;BME280;47690;39.202;-77.198;2022-07-01T00:57:40;100540.56;;;28.04;54.04
50105;BME280;47690;39.202;-77.198;2022-07-01T01:00:19;100545.53;;;27.98;55.13
50105;BME280;47690;39.202;-77.198;2022-07-01T01:02:53;100537.66;;;27.86;54.35
50105;BME280;47690;39.202;-77.198;2022-07-01T01:05:25;100536.78;;;27.76;54.80
50105;BME280;47690;39.202;-77.198;2022-07-01T01:07:57;100540.91;;;27.68;55.07
50105;BME280;47690;39.202;-77.198;2022-07-01T01:10:29;100536.09;;;27.62;55.04
50105;BME280;47690;39.202;-77.198;2022-07-01T01:13:03;100535.66;;;27.57;55.37
50105;BME280;47690;39.202;-77.198;2022-07-01T01:15:34;100552.84;;;27.51;55.17
50105;BME280;47690;39.202;-77.198;2022-07-01T01:18:08;100547.34;;;27.43;55.70
50105;BME280;47690;39.202;-77.198;2022-07-01T01:20:47;100541.00;;;27.34;56.34
50105;BME280;47690;39.202;-77.198;2022-07-01T01:23:17;100549.44;;;27.28;56.73
50105;BME280;47690;39.202;-77.198;2022-07-01T01:25:49;100547.28;;;27.22;56.69
50105;BME280;47690;39.202;-77.198;2022-07-01T01:28:20;100545.97;;;27.16;56.98
50105;BME280;47690;39.202;-77.198;2022-07-01T01:30:56;100553.59;;;27.09;57.32
50105;BME280;47690;39.202;-77.198;2022-07-01T01:33:26;100547.81;;;27.04;57.66
50105;BME280;47690;39.202;-77.198;2022-07-01T01:35:58;100547.34;;;26.99;57.97
50105;BME280;47690;39.202;-77.198;2022-07-01T01:38:29;100550.47;;;26.93;58.19
50105;BME280;47690;39.202;-77.198;2022-07-01T01:41:03;100558.84;;;26.86;58.51
50105;BME280;47690;39.202;-77.198;2022-07-01T01:43:37;100557.44;;;26.82;58.87
50105;BME280;47690;39.202;-77.198;2022-07-01T01:46:07;100556.13;;;26.77;58.96
50105;BME280;47690;39.202;-77.198;2022-07-01T01:48:40;100551.16;;;26.72;59.14
50105;BME280;47690;39.202;-77.198;2022-07-01T01:51:13;100561.28;;;26.67;59.10
50105;BME280;47690;39.202;-77.198;2022-07-01T01:53:45;100558.16;;;26.62;59.67
50105;BME280;47690;39.202;-77.198;2022-07-01T01:56:17;100564.75;;;26.56;59.93
50105;BME280;47690;39.202;-77.198;2022-07-01T01:58:48;100566.09;;;26.50;59.74
50105;BME280;47690;39.202;-77.198;2022-07-01T02:01:19;100561.28;;;26.44;60.20
50105;BME280;47690;39.202;-77.198;2022-07-01T02:03:51;100560.06;;;26.37;60.41
50105;BME280;47690;39.202;-77.198;2022-07-01T02:06:21;100570.16;;;26.31;60.79
50105;BME280;47690;39.202;-77.198;2022-07-01T02:08:51;100570.63;;;26.25;60.72
50105;BME280;47690;39.202;-77.198;2022-07-01T02:11:21;100578.78;;;26.22;61.32
50105;BME280;47690;39.202;-77.198;2022-07-01T02:13:51;100572.00;;;26.18;61.29
50105;BME280;47690;39.202;-77.198;2022-07-01T02:16:21;100575.97;;;26.12;61.65
50105;BME280;47690;39.202;-77.198;2022-07-01T02:18:51;100578.97;;;26.08;62.20
50105;BME280;47690;39.202;-77.198;2022-07-01T02:21:24;100581.09;;;26.02;62.04
50105;BME280;47690;39.202;-77.198;2022-07-01T02:23:56;100587.53;;;25.98;61.83
50105;BME280;47690;39.202;-77.198;2022-07-01T02:26:29;100588.50;;;25.97;64.65
50105;BME280;47690;39.202;-77.198;2022-07-01T02:29:05;100588.59;;;25.84;63.27
50105;BME280;47690;39.202;-77.198;2022-07-01T02:32:25;100600.44;;;25.78;64.20
50105;BME280;47690;39.202;-77.198;2022-07-01T02:35:04;100590.69;;;25.68;62.56
50105;BME280;47690;39.202;-77.198;2022-07-01T02:37:48;100596.19;;;25.64;62.99
50105;BME280;47690;39.202;-77.198;2022-07-01T02:40:25;100601.69;;;25.61;62.92
50105;BME280;47690;39.202;-77.198;2022-07-01T02:43:01;100595.56;;;25.61;63.67
50105;BME280;47690;39.202;-77.198;2022-07-01T02:45:47;100599.41;;;25.57;64.54
50105;BME280;47690;39.202;-77.198;2022-07-01T02:52:40;100595.59;;;25.48;65.38
50105;BME280;47690;39.202;-77.198;2022-07-01T02:55:45;100591.00;;;25.39;64.94
50105;BME280;47690;39.202;-77.198;2022-07-01T02:58:19;100593.22;;;25.32;64.25
50105;BME280;47690;39.202;-77.198;2022-07-01T03:00:51;100592.59;;;25.28;63.93
50105;BME280;47690;39.202;-77.198;2022-07-01T03:03:40;100592.72;;;25.27;64.65
50105;BME280;47690;39.202;-77.198;2022-07-01T03:06:36;100591.16;;;25.24;64.71
50105;BME280;47690;39.202;-77.198;2022-07-01T03:09:29;100583.59;;;25.19;65.52
50105;BME280;47690;39.202;-77.198;2022-07-01T03:13:08;100585.81;;;25.13;65.36
50105;BME280;47690;39.202;-77.198;2022-07-01T03:15:51;100586.03;;;25.09;65.01
50105;BME280;47690;39.202;-77.198;2022-07-01T03:19:25;100581.00;;;25.06;66.88
50105;BME280;47690;39.202;-77.198;2022-07-01T03:22:45;100584.38;;;24.95;65.24
50105;BME280;47690;39.202;-77.198;2022-07-01T03:25:24;100582.91;;;24.91;65.28
50105;BME280;47690;39.202;-77.198;2022-07-01T03:28:08;100588.41;;;24.88;66.41
50105;BME280;47690;39.202;-77.198;2022-07-01T03:30:54;100586.69;;;24.87;66.38
50105;BME280;47690;39.202;-77.198;2022-07-01T03:33:30;100586.06;;;24.83;65.81
50105;BME280;47690;39.202;-77.198;2022-07-01T03:36:17;100593.16;;;24.83;66.64
50105;BME280;47690;39.202;-77.198;2022-07-01T03:39:00;100589.13;;;24.77;65.78
50105;BME280;47690;39.202;-77.198;2022-07-01T03:42:23;100580.47;;;24.75;66.61
50105;BME280;47690;39.202;-77.198;2022-07-01T03:45:21;100581.66;;;24.71;67.11
50105;BME280;47690;39.202;-77.198;2022-07-01T03:48:12;100581.13;;;24.66;66.76
50105;BME280;47690;39.202;-77.198;2022-07-01T03:51:00;100581.44;;;24.61;66.91
50105;BME280;47690;39.202;-77.198;2022-07-01T03:53:34;100585.03;;;24.60;67.10
50105;BME280;47690;39.202;-77.198;2022-07-01T03:56:29;100583.34;;;24.59;67.03
50105;BME280;47690;39.202;-77.198;2022-07-01T03:59:18;100586.94;;;24.58;66.83
50105;BME280;47690;39.202;-77.198;2022-07-01T04:02:37;100581.53;;;24.60;68.97
50105;BME280;47690;39.202;-77.198;2022-07-01T04:06:42;100578.50;;;24.53;68.12
50105;BME280;47690;39.202;-77.198;2022-07-01T04:11:34;100575.25;;;24.49;69.21
50105;BME280;47690;39.202;-77.198;2022-07-01T04:15:19;100569.53;;;24.42;68.15
50105;BME280;47690;39.202;-77.198;2022-07-01T04:19:34;100569.13;;;24.36;67.93
50105;BME280;47690;39.202;-77.198;2022-07-01T04:23:36;100576.38;;;24.32;69.45
50105;BME280;47690;39.202;-77.198;2022-07-01T04:27:17;100579.53;;;24.24;68.58
50105;BME280;47690;39.202;-77.198;2022-07-01T04:31:58;100571.13;;;24.19;69.56
50105;BME280;47690;39.202;-77.198;2022-07-01T04:35:06;100571.53;;;24.13;68.90
50105;BME280;47690;39.202;-77.198;2022-07-01T04:38:25;100561.31;;;24.08;68.69
50105;BME280;47690;39.202;-77.198;2022-07-01T04:47:15;100557.25;;;24.02;68.95
50105;BME280;47690;39.202;-77.198;2022-07-01T04:50:07;100562.75;;;23.99;68.96
50105;BME280;47690;39.202;-77.198;2022-07-01T04:54:29;100567.06;;;24.00;71.16
50105;BME280;47690;39.202;-77.198;2022-07-01T04:57:36;100561.16;;;23.97;70.42
50105;BME280;47690;39.202;-77.198;2022-07-01T05:01:15;100553.34;;;23.95;71.28
50105;BME280;47690;39.202;-77.198;2022-07-01T05:04:46;100556.13;;;23.94;71.15
50105;BME280;47690;39.202;-77.198;2022-07-01T05:08:10;100554.63;;;23.90;71.23
50105;BME280;47690;39.202;-77.198;2022-07-01T05:12:08;100555.16;;;23.82;69.77
50105;BME280;47690;39.202;-77.198;2022-07-01T05:17:15;100544.94;;;23.77;71.30
50105;BME280;47690;39.202;-77.198;2022-07-01T05:21:40;100545.13;;;23.74;71.86
50105;BME280;47690;39.202;-77.198;2022-07-01T05:25:04;100534.91;;;23.69;71.58
50105;BME280;47690;39.202;-77.198;2022-07-01T05:28:54;100533.53;;;23.64;71.56
50105;BME280;47690;39.202;-77.198;2022-07-01T05:33:09;100538.88;;;23.62;72.34
50105;BME280;47690;39.202;-77.198;2022-07-01T05:38:19;100528.59;;;23.59;72.40
50105;BME280;47690;39.202;-77.198;2022-07-01T05:41:05;100529.94;;;23.52;70.78
50105;BME280;47690;39.202;-77.198;2022-07-01T05:49:27;100534.53;;;23.48;70.78
50105;BME280;47690;39.202;-77.198;2022-07-01T05:52:01;100527.78;;;23.44;71.36
50105;BME280;47690;39.202;-77.198;2022-07-01T06:12:33;100504.19;;;23.29;71.98
50105;BME280;47690;39.202;-77.198;2022-07-01T06:15:33;100507.72;;;23.28;72.51
50105;BME280;47690;39.202;-77.198;2022-07-01T06:18:19;100499.94;;;23.27;72.07
50105;BME280;47690;39.202;-77.198;2022-07-01T06:21:21;100506.13;;;23.26;72.43
50105;BME280;47690;39.202;-77.198;2022-07-01T06:24:09;100501.75;;;23.26;73.41
50105;BME280;47690;39.202;-77.198;2022-07-01T06:31:57;100510.84;;;23.20;72.73
50105;BME280;47690;39.202;-77.198;2022-07-01T06:34:49;100507.56;;;23.17;72.94
50105;BME280;47690;39.202;-77.198;2022-07-01T06:37:26;100502.44;;;23.15;73.16
50105;BME280;47690;39.202;-77.198;2022-07-01T06:40:04;100491.06;;;23.15;72.95
50105;BME280;47690;39.202;-77.198;2022-07-01T06:42:37;100501.50;;;23.16;73.14
50105;BME280;47690;39.202;-77.198;2022-07-01T06:45:18;100487.63;;;23.14;73.22
50105;BME280;47690;39.202;-77.198;2022-07-01T06:48:28;100489.28;;;23.15;74.23
50105;BME280;47690;39.202;-77.198;2022-07-01T06:53:14;100476.53;;;23.09;74.27
50105;BME280;47690;39.202;-77.198;2022-07-01T06:56:52;100471.47;;;23.06;72.96
50105;BME280;47690;39.202;-77.198;2022-07-01T06:59:26;100464.75;;;23.02;73.21
50105;BME280;47690;39.202;-77.198;2022-07-01T07:02:01;100469.16;;;23.01;73.65
50105;BME280;47690;39.202;-77.198;2022-07-01T07:04:49;100470.09;;;23.00;74.04
50105;BME280;47690;39.202;-77.198;2022-07-01T07:07:33;100464.09;;;22.98;73.52
50105;BME280;47690;39.202;-77.198;2022-07-01T07:10:05;100458.84;;;22.98;73.86
50105;BME280;47690;39.202;-77.198;2022-07-01T07:12:44;100469.44;;;22.97;73.61
50105;BME280;47690;39.202;-77.198;2022-07-01T07:15:15;100471.25;;;22.96;74.07
50105;BME280;47690;39.202;-77.198;2022-07-01T07:17:49;100461.56;;;22.97;74.00
50105;BME280;47690;39.202;-77.198;2022-07-01T07:20:20;100461.56;;;22.97;73.99
50105;BME280;47690;39.202;-77.198;2022-07-01T07:22:53;100462.41;;;22.97;74.09
50105;BME280;47690;39.202;-77.198;2022-07-01T07:25:25;100448.53;;;22.95;73.93
50105;BME280;47690;39.202;-77.198;2022-07-01T07:28:01;100457.34;;;22.94;74.08
50105;BME280;47690;39.202;-77.198;2022-07-01T07:30:33;100463.75;;;22.90;73.84
50105;BME280;47690;39.202;-77.198;2022-07-01T07:33:05;100448.09;;;22.88;74.27
50105;BME280;47690;39.202;-77.198;2022-07-01T07:35:36;100458.69;;;22.87;74.29
50105;BME280;47690;39.202;-77.198;2022-07-01T07:38:09;100455.09;;;22.88;74.51
50105;BME280;47690;39.202;-77.198;2022-07-01T07:40:44;100448.19;;;22.87;74.45
50105;BME280;47690;39.202;-77.198;2022-07-01T07:43:15;100454.28;;;22.87;74.76
50105;BME280;47690;39.202;-77.198;2022-07-01T07:45:46;100456.06;;;22.87;74.78
50105;BME280;47690;39.202;-77.198;2022-07-01T07:48:18;100456.06;;;22.87;74.77
50105;BME280;47690;39.202;-77.198;2022-07-01T07:50:49;100456.06;;;22.87;74.86
50105;BME280;47690;39.202;-77.198;2022-07-01T07:53:19;100444.81;;;22.85;74.71
50105;BME280;47690;39.202;-77.198;2022-07-01T07:55:52;100448.47;;;22.82;74.75
50105;BME280;47690;39.202;-77.198;2022-07-01T07:58:21;100449.41;;;22.81;75.08
50105;BME280;47690;39.202;-77.198;2022-07-01T08:00:51;100446.88;;;22.79;75.03
50105;BME280;47690;39.202;-77.198;2022-07-01T08:03:21;100447.75;;;22.80;75.21
50105;BME280;47690;39.202;-77.198;2022-07-01T08:05:51;100454.75;;;22.79;74.96
50105;BME280;47690;39.202;-77.198;2022-07-01T08:08:21;100449.50;;;22.79;75.14
50105;BME280;47690;39.202;-77.198;2022-07-01T08:10:51;100448.78;;;22.77;75.05
50105;BME280;47690;39.202;-77.198;2022-07-01T08:13:21;100437.53;;;22.75;75.22
50105;BME280;47690;39.202;-77.198;2022-07-01T08:15:51;100446.34;;;22.74;74.96
50105;BME280;47690;39.202;-77.198;2022-07-01T08:18:22;100452.50;;;22.73;75.11
50105;BME280;47690;39.202;-77.198;2022-07-01T08:20:52;100449.06;;;22.73;75.05
50105;BME280;47690;39.202;-77.198;2022-07-01T08:23:23;100452.72;;;22.70;74.99
50105;BME280;47690;39.202;-77.198;2022-07-01T08:25:54;100441.56;;;22.67;75.18
50105;BME280;47690;39.202;-77.198;2022-07-01T08:28:24;100444.28;;;22.65;75.41
50105;BME280;47690;39.202;-77.198;2022-07-01T08:30:53;100446.09;;;22.64;75.43
50105;BME280;47690;39.202;-77.198;2022-07-01T08:33:25;100439.97;;;22.64;75.70
50105;BME280;47690;39.202;-77.198;2022-07-01T08:35:56;100435.59;;;22.64;75.68
50105;BME280;47690;39.202;-77.198;2022-07-01T08:38:27;100437.34;;;22.64;75.54
50105;BME280;47690;39.202;-77.198;2022-07-01T08:40:57;100434.00;;;22.62;75.81
50105;BME280;47690;39.202;-77.198;2022-07-01T08:43:27;100435.75;;;22.61;75.52
50105;BME280;47690;39.202;-77.198;2022-07-01T08:45:58;100434.06;;;22.60;76.14
50105;BME280;47690;39.202;-77.198;2022-07-01T08:48:35;100436.91;;;22.57;76.09
50105;BME280;47690;39.202;-77.198;2022-07-01T08:51:06;100438.59;;;22.58;76.11
50105;BME280;47690;39.202;-77.198;2022-07-01T08:53:35;100444.78;;;22.57;76.38
50105;BME280;47690;39.202;-77.198;2022-07-01T08:56:05;100445.72;;;22.56;76.34
50105;BME280;47690;39.202;-77.198;2022-07-01T08:58:53;100439.63;;;22.56;76.07
50105;BME280;47690;39.202;-77.198;2022-07-01T09:01:25;100442.25;;;22.56;76.27
50105;BME280;47690;39.202;-77.198;2022-07-01T09:04:14;100433.53;;;22.55;77.15
50105;BME280;47690;39.202;-77.198;2022-07-01T09:06:46;100431.97;;;22.53;76.38
50105;BME280;47690;39.202;-77.198;2022-07-01T09:09:22;100433.72;;;22.52;76.68
50105;BME280;47690;39.202;-77.198;2022-07-01T09:11:54;100430.31;;;22.50;76.38
50105;BME280;47690;39.202;-77.198;2022-07-01T09:14:30;100437.34;;;22.49;76.54
50105;BME280;47690;39.202;-77.198;2022-07-01T09:17:05;100427.06;;;22.46;76.33
50105;BME280;47690;39.202;-77.198;2022-07-01T09:19:48;100437.47;;;22.48;76.91
50105;BME280;47690;39.202;-77.198;2022-07-01T09:22:18;100435.09;;;22.43;76.33
50105;BME280;47690;39.202;-77.198;2022-07-01T09:24:51;100434.34;;;22.41;76.59
50105;BME280;47690;39.202;-77.198;2022-07-01T09:27:25;100433.63;;;22.39;76.88
50105;BME280;47690;39.202;-77.198;2022-07-01T09:29:56;100429.31;;;22.38;76.71
50105;BME280;47690;39.202;-77.198;2022-07-01T09:32:26;100426.03;;;22.34;76.82
50105;BME280;47690;39.202;-77.198;2022-07-01T09:35:00;100427.81;;;22.34;76.85
50105;BME280;47690;39.202;-77.198;2022-07-01T09:37:34;100442.72;;;22.33;76.70
50105;BME280;47690;39.202;-77.198;2022-07-01T09:40:05;100445.44;;;22.32;76.72
50105;BME280;47690;39.202;-77.198;2022-07-01T09:42:46;100452.66;;;22.28;76.88
50105;BME280;47690;39.202;-77.198;2022-07-01T09:45:17;100450.41;;;22.22;76.57
50105;BME280;47690;39.202;-77.198;2022-07-01T09:47:48;100460.25;;;22.18;77.04
50105;BME280;47690;39.202;-77.198;2022-07-01T09:50:22;100452.44;;;22.17;77.08
50105;BME280;47690;39.202;-77.198;2022-07-01T09:52:53;100453.22;;;22.19;77.24
50105;BME280;47690;39.202;-77.198;2022-07-01T09:55:24;100448.72;;;22.21;77.66
50105;BME280;47690;39.202;-77.198;2022-07-01T09:57:54;100447.84;;;22.20;77.76
50105;BME280;47690;39.202;-77.198;2022-07-01T10:00:28;100450.47;;;22.20;77.75
50105;BME280;47690;39.202;-77.198;2022-07-01T10:03:03;100449.66;;;22.20;77.87
50105;BME280;47690;39.202;-77.198;2022-07-01T10:05:47;100448.72;;;22.21;78.06
50105;BME280;47690;39.202;-77.198;2022-07-01T10:14:29;100445.16;;;22.22;77.83
50105;BME280;47690;39.202;-77.198;2022-07-01T10:17:01;100443.38;;;22.22;77.57
50105;BME280;47690;39.202;-77.198;2022-07-01T10:19:33;100441.59;;;22.23;77.79
50105;BME280;47690;39.202;-77.198;2022-07-01T10:22:29;100441.31;;;22.28;78.51
50105;BME280;47690;39.202;-77.198;2022-07-01T10:28:22;100452.94;;;22.38;78.15
50105;BME280;47690;39.202;-77.198;2022-07-01T10:31:06;100453.47;;;22.43;78.34
50105;BME280;47690;39.202;-77.198;2022-07-01T10:37:15;100452.66;;;22.57;79.14
50105;BME280;47690;39.202;-77.198;2022-07-01T10:40:02;100447.13;;;22.62;78.36
50105;BME280;47690;39.202;-77.198;2022-07-01T10:42:58;100436.88;;;22.72;79.31
50105;BME280;47690;39.202;-77.198;2022-07-01T10:45:53;100440.91;;;22.77;77.77
50105;BME280;47690;39.202;-77.198;2022-07-01T10:48:26;100439.47;;;22.86;78.55
50105;BME280;47690;39.202;-77.198;2022-07-01T10:51:06;100431.94;;;22.95;78.06
50105;BME280;47690;39.202;-77.198;2022-07-01T10:53:47;100440.91;;;23.05;78.89
50105;BME280;47690;39.202;-77.198;2022-07-01T10:56:39;100432.53;;;23.13;79.01
50105;BME280;47690;39.202;-77.198;2022-07-01T10:59:18;100435.59;;;23.19;78.26
50105;BME280;47690;39.202;-77.198;2022-07-01T11:01:51;100437.91;;;23.24;78.13
50105;BME280;47690;39.202;-77.198;2022-07-01T11:04:37;100423.34;;;23.33;78.54
50105;BME280;47690;39.202;-77.198;2022-07-01T11:07:08;100433.47;;;23.39;78.04
50105;BME280;47690;39.202;-77.198;2022-07-01T11:09:40;100426.75;;;23.48;78.00
50105;BME280;47690;39.202;-77.198;2022-07-01T11:12:17;100433.94;;;23.59;78.21
50105;BME280;47690;39.202;-77.198;2022-07-01T11:14:47;100428.03;;;23.68;77.88
50105;BME280;47690;39.202;-77.198;2022-07-01T11:17:22;100426.78;;;23.74;77.74
50105;BME280;47690;39.202;-77.198;2022-07-01T11:19:55;100434.03;;;23.83;77.78
50105;BME280;47690;39.202;-77.198;2022-07-01T11:22:34;100436.06;;;23.93;78.30
50105;BME280;47690;39.202;-77.198;2022-07-01T11:25:09;100432.97;;;23.99;77.97
50105;BME280;47690;39.202;-77.198;2022-07-01T11:27:46;100436.06;;;24.06;77.88
50105;BME280;47690;39.202;-77.198;2022-07-01T11:30:18;100424.19;;;24.13;77.29
50105;BME280;47690;39.202;-77.198;2022-07-01T11:32:58;100420.78;;;24.24;78.19
50105;BME280;47690;39.202;-77.198;2022-07-01T11:35:32;100425.41;;;24.33;78.20
50105;BME280;47690;39.202;-77.198;2022-07-01T11:38:31;100419.28;;;24.46;78.44
50105;BME280;47690;39.202;-77.198;2022-07-01T11:41:34;100421.97;;;24.57;78.04
50105;BME280;47690;39.202;-77.198;2022-07-01T11:44:08;100422.44;;;24.51;78.35
50105;BME280;47690;39.202;-77.198;2022-07-01T11:46:49;100420.19;;;24.58;79.02
50105;BME280;47690;39.202;-77.198;2022-07-01T11:49:19;100431.00;;;24.66;78.58
50105;BME280;47690;39.202;-77.198;2022-07-01T11:52:02;100430.13;;;24.78;79.20
50105;BME280;47690;39.202;-77.198;2022-07-01T11:54:45;100430.94;;;24.92;79.82
50105;BME280;47690;39.202;-77.198;2022-07-01T11:57:22;100429.06;;;25.05;80.44
50105;BME280;47690;39.202;-77.198;2022-07-01T12:03:02;100426.22;;;25.33;79.49
50105;BME280;47690;39.202;-77.198;2022-07-01T12:05:36;100421.91;;;25.43;80.09
50105;BME280;47690;39.202;-77.198;2022-07-01T12:08:14;100427.13;;;25.56;80.06
50105;BME280;47690;39.202;-77.198;2022-07-01T12:10:45;100430.75;;;25.67;79.69
50105;BME280;47690;39.202;-77.198;2022-07-01T12:13:25;100429.94;;;25.77;80.57
50105;BME280;47690;39.202;-77.198;2022-07-01T12:16:08;100429.94;;;25.89;80.31
50105;BME280;47690;39.202;-77.198;2022-07-01T12:18:56;100435.22;;;26.00;80.16
50105;BME280;47690;39.202;-77.198;2022-07-01T12:21:29;100441.72;;;26.08;79.75
50105;BME280;47690;39.202;-77.198;2022-07-01T12:24:09;100439.19;;;26.17;80.06
50105;BME280;47690;39.202;-77.198;2022-07-01T12:27:22;100448.69;;;26.31;80.87
50105;BME280;47690;39.202;-77.198;2022-07-01T12:30:26;100449.63;;;26.42;80.64
50105;BME280;47690;39.202;-77.198;2022-07-01T12:33:47;100457.91;;;26.49;79.22
50105;BME280;47690;39.202;-77.198;2022-07-01T12:36:20;100456.69;;;26.53;78.92
50105;BME280;47690;39.202;-77.198;2022-07-01T12:39:02;100458.03;;;26.58;79.53
50105;BME280;47690;39.202;-77.198;2022-07-01T12:41:36;100454.88;;;26.65;78.71
50105;BME280;47690;39.202;-77.198;2022-07-01T12:44:28;100455.72;;;26.77;79.78
50105;BME280;47690;39.202;-77.198;2022-07-01T12:46:58;100458.56;;;26.85;78.23
50105;BME280;47690;39.202;-77.198;2022-07-01T12:49:39;100453.53;;;26.93;78.15
50105;BME280;47690;39.202;-77.198;2022-07-01T12:52:26;100447.38;;;27.04;78.71
50105;BME280;47690;39.202;-77.198;2022-07-01T12:54:56;100445.19;;;27.09;77.56
50105;BME280;47690;39.202;-77.198;2022-07-01T12:57:32;100449.84;;;27.17;77.61
50105;BME280;47690;39.202;-77.198;2022-07-01T13:00:06;100451.00;;;27.24;77.64
50105;BME280;47690;39.202;-77.198;2022-07-01T13:06:27;100439.34;;;27.48;76.96
50105;BME280;47690;39.202;-77.198;2022-07-01T13:09:30;100435.97;;;27.58;76.84
50105;BME280;47690;39.202;-77.198;2022-07-01T13:12:17;100438.06;;;27.64;76.77
50105;BME280;47690;39.202;-77.198;2022-07-01T13:15:03;100434.09;;;27.70;76.20
50105;BME280;47690;39.202;-77.198;2022-07-01T13:21:35;100437.78;;;27.88;75.92
50105;BME280;47690;39.202;-77.198;2022-07-01T13:24:20;100433.47;;;27.87;75.95
50105;BME280;47690;39.202;-77.198;2022-07-01T13:27:00;100425.81;;;27.94;75.51
50105;BME280;47690;39.202;-77.198;2022-07-01T13:29:31;100422.06;;;27.97;75.31
50105;BME280;47690;39.202;-77.198;2022-07-01T13:32:16;100414.31;;;28.05;75.39
50105;BME280;47690;39.202;-77.198;2022-07-01T13:35:37;100409.78;;;28.17;75.54
50105;BME280;47690;39.202;-77.198;2022-07-01T13:38:21;100411.28;;;28.19;75.05
50105;BME280;47690;39.202;-77.198;2022-07-01T13:41:25;100408.28;;;28.24;74.65
50105;BME280;47690;39.202;-77.198;2022-07-01T13:43:56;100412.47;;;28.27;74.39
50105;BME280;47690;39.202;-77.198;2022-07-01T13:46:29;100400.63;;;28.31;74.22
50105;BME280;47690;39.202;-77.198;2022-07-01T13:49:04;100401.06;;;28.36;74.24
50105;BME280;47690;39.202;-77.198;2022-07-01T13:51:44;100400.66;;;28.41;74.12
50105;BME280;47690;39.202;-77.198;2022-07-01T13:54:29;100397.47;;;28.47;73.85
50105;BME280;47690;39.202;-77.198;2022-07-01T13:57:38;100396.78;;;28.55;74.01
50105;BME280;47690;39.202;-77.198;2022-07-01T14:01:33;100388.28;;;28.61;73.15
50105;BME280;47690;39.202;-77.198;2022-07-01T14:04:22;100382.56;;;28.66;72.94
50105;BME280;47690;39.202;-77.198;2022-07-01T14:06:57;100381.44;;;28.68;73.00
50105;BME280;47690;39.202;-77.198;2022-07-01T14:09:26;100380.22;;;28.72;72.99
50105;BME280;47690;39.202;-77.198;2022-07-01T14:11:56;100379.63;;;28.79;72.64
50105;BME280;47690;39.202;-77.198;2022-07-01T14:14:26;100379.94;;;28.85;72.23
50105;BME280;47690;39.202;-77.198;2022-07-01T14:17:00;100380.09;;;28.94;72.59
50105;BME280;47690;39.202;-77.198;2022-07-01T14:19:39;100379.22;;;29.03;72.66
50105;BME280;47690;39.202;-77.198;2022-07-01T14:22:12;100374.22;;;29.10;72.67
50105;BME280;47690;39.202;-77.198;2022-07-01T14:24:45;100378.97;;;29.16;72.43
50105;BME280;47690;39.202;-77.198;2022-07-01T14:27:16;100378.38;;;29.22;72.45
50105;BME280;47690;39.202;-77.198;2022-07-01T14:29:51;100366.22;;;29.29;72.50
50105;BME280;47690;39.202;-77.198;2022-07-01T14:32:25;100374.59;;;29.35;72.02
50105;BME280;47690;39.202;-77.198;2022-07-01T14:35:01;100366.31;;;29.38;71.18
50105;BME280;47690;39.202;-77.198;2022-07-01T14:38:09;100360.44;;;29.44;70.70
50105;BME280;47690;39.202;-77.198;2022-07-01T14:42:06;100361.44;;;29.53;70.59
50105;BME280;47690;39.202;-77.198;2022-07-01T14:45:07;100362.00;;;29.56;70.94
50105;BME280;47690;39.202;-77.198;2022-07-01T14:48:28;100370.38;;;29.62;71.41
50105;BME280;47690;39.202;-77.198;2022-07-01T14:51:43;100381.66;;;29.64;71.07
50105;BME280;47690;39.202;-77.198;2022-07-01T14:55:18;100381.09;;;29.70;70.20
50105;BME280;47690;39.202;-77.198;2022-07-01T14:59:03;100384.28;;;29.74;69.48
50105;BME280;47690;39.202;-77.198;2022-07-01T15:02:17;100374.91;;;29.79;69.60
50105;BME280;47690;39.202;-77.198;2022-07-01T15:05:09;100380.75;;;29.83;70.63
50105;BME280;47690;39.202;-77.198;2022-07-01T15:08:34;100375.53;;;29.91;69.68
50105;BME280;47690;39.202;-77.198;2022-07-01T15:12:06;100369.63;;;29.97;69.93